Time;durP1;ratioP1;P1;durP2;ratioP2;P2;SDS_P1;SDS_P2;PMS_P1;PMS_P2;Temp;Humidity;BMP_temperature;BMP_pressure;BME280_temperature;BME280_humidity;BME280_pressure;Samples;Min_cycle;Max_cycle;Signal;HPM_P1;HPM_P2
2021/06/04 00:00:24;;;;;;;3.67;1.92;;;17.50;99.90;;;;;;5073538;28;20024;-90
2021/06/04 00:02:51;;;;;;;5.13;2.20;;;17.50;99.90;;;;;;5074626;28;20032;-90
2021/06/04 00:05:20;;;;;;;4.93;2.30;;;17.40;99.90;;;;;;5073312;28;20028;-90
2021/06/04 00:07:46;;;;;;;6.03;2.28;;;17.50;99.90;;;;;;5073171;28;20021;-90
2021/06/04 00:10:25;;;;;;;4.68;2.10;;;17.50;99.90;;;;;;5073098;28;20082;-90
2021/06/04 00:12:51;;;;;;;5.45;2.10;;;17.50;99.90;;;;;;5074281;28;20024;-90
2021/06/04 00:15:22;;;;;;;6.68;2.15;;;17.50;99.90;;;;;;5073137;28;20035;-90
2021/06/04 00:17:48;;;;;;;6.03;2.40;;;17.50;99.90;;;;;;5073009;28;20135;-90
2021/06/04 00:20:19;;;;;;;8.05;2.22;;;17.30;99.90;;;;;;5074525;28;20048;-90
2021/06/04 00:22:45;;;;;;;4.03;2.30;;;17.20;99.90;;;;;;5073106;28;20535;-89
2021/06/04 00:25:11;;;;;;;3.80;2.00;;;17.20;99.90;;;;;;5072963;28;20059;-90
2021/06/04 00:27:37;;;;;;;6.47;2.40;;;17.10;99.90;;;;;;5073003;28;20028;-90
2021/06/04 00:30:04;;;;;;;4.55;2.33;;;17.00;99.90;;;;;;5074425;28;20447;-90
2021/06/04 00:32:29;;;;;;;10.63;2.35;;;16.90;99.90;;;;;;5072886;28;20025;-90
2021/06/04 00:34:55;;;;;;;7.85;2.30;;;16.80;99.90;;;;;;5072736;28;20051;-90
2021/06/04 00:37:21;;;;;;;2.45;2.08;;;16.80;99.90;;;;;;5072964;28;20020;-90
2021/06/04 00:39:48;;;;;;;4.30;2.38;;;16.80;99.90;;;;;;5072885;28;20021;-90
2021/06/04 00:42:20;;;;;;;6.22;2.50;;;16.80;99.90;;;;;;5072882;28;20031;-90
2021/06/04 00:44:50;;;;;;;8.60;2.20;;;16.70;99.90;;;;;;5074144;28;20029;-90
2021/06/04 00:47:16;;;;;;;3.28;2.15;;;16.80;99.90;;;;;;5072542;28;20432;-90
2021/06/04 00:49:42;;;;;;;5.68;2.60;;;16.90;99.90;;;;;;5072842;28;20055;-90
2021/06/04 00:52:13;;;;;;;4.80;2.20;;;16.80;99.90;;;;;;5072672;28;20055;-91
2021/06/04 00:54:40;;;;;;;6.38;2.40;;;16.70;99.90;;;;;;5072598;28;20029;-91
2021/06/04 00:57:07;;;;;;;4.88;2.10;;;16.90;99.90;;;;;;5072753;28;20047;-91
2021/06/04 00:59:37;;;;;;;4.22;2.08;;;16.80;99.90;;;;;;5073866;28;20052;-90
2021/06/04 01:02:08;;;;;;;3.60;2.10;;;16.80;99.90;;;;;;5072698;28;20031;-91
2021/06/04 01:04:35;;;;;;;4.85;2.20;;;16.80;99.90;;;;;;5072770;28;20422;-91
2021/06/04 01:07:09;;;;;;;5.93;2.40;;;16.70;99.90;;;;;;5072747;28;20107;-90
2021/06/04 01:10:12;;;;;;;5.95;2.33;;;16.70;99.90;;;;;;5072606;28;20033;-90
2021/06/04 01:13:20;;;;;;;4.28;2.22;;;16.70;99.90;;;;;;5072230;28;20031;-91
2021/06/04 01:16:31;;;;;;;5.40;2.22;;;16.70;99.90;;;;;;5072559;28;20025;-92
2021/06/04 01:19:05;;;;;;;3.85;2.60;;;16.70;99.90;;;;;;5055335;28;20025;-90
2021/06/04 01:21:42;;;;;;;4.88;2.30;;;16.60;99.90;;;;;;5071940;28;20040;-91
2021/06/04 01:24:28;;;;;;;6.70;2.40;;;16.60;99.90;;;;;;5064117;28;20183;-90
2021/06/04 01:27:00;;;;;;;8.18;2.50;;;16.50;99.90;;;;;;5072500;28;20115;-91
2021/06/04 01:29:36;;;;;;;3.47;2.17;;;16.50;99.90;;;;;;5072538;28;20032;-91
2021/06/04 01:32:17;;;;;;;5.50;2.28;;;16.60;99.90;;;;;;5072256;28;20082;-90
2021/06/04 01:34:50;;;;;;;5.13;2.58;;;16.50;99.90;;;;;;5073297;28;20132;-90
2021/06/04 01:37:23;;;;;;;5.85;2.25;;;16.50;99.90;;;;;;5072382;28;20017;-91
2021/06/04 01:40:00;;;;;;;3.10;2.10;;;16.60;99.90;;;;;;5072454;28;20081;-90
2021/06/04 01:42:39;;;;;;;5.90;2.33;;;16.60;99.90;;;;;;5073469;28;20040;-90
2021/06/04 01:45:16;;;;;;;6.55;2.40;;;16.50;99.90;;;;;;5073663;28;20035;-90
2021/06/04 01:47:45;;;;;;;4.38;2.40;;;16.60;99.90;;;;;;5072183;28;20380;-91
2021/06/04 01:50:25;;;;;;;4.95;2.42;;;16.50;99.90;;;;;;5072454;28;20039;-90
2021/06/04 01:52:54;;;;;;;5.03;2.60;;;16.60;99.90;;;;;;5072210;28;20484;-91
2021/06/04 01:55:27;;;;;;;4.10;2.70;;;16.50;99.90;;;;;;5072294;28;20020;-91
2021/06/04 01:58:00;;;;;;;6.38;2.70;;;16.40;99.90;;;;;;5074605;28;20139;-91
2021/06/04 02:00:28;;;;;;;5.15;2.95;;;16.40;99.90;;;;;;5076537;28;20029;-91
2021/06/04 02:02:55;;;;;;;3.90;2.45;;;16.40;99.90;;;;;;5076200;28;20484;-90
2021/06/04 02:05:26;;;;;;;4.97;2.40;;;16.40;99.90;;;;;;5075917;28;20060;-90
2021/06/04 02:07:52;;;;;;;3.58;2.40;;;16.50;99.90;;;;;;5076079;28;20483;-91
2021/06/04 02:10:28;;;;;;;5.80;2.42;;;16.50;99.90;;;;;;5075688;28;20028;-91
2021/06/04 02:12:54;;;;;;;7.75;2.70;;;16.50;99.90;;;;;;5076944;28;20032;-91
2021/06/04 02:15:26;;;;;;;3.15;2.40;;;16.50;99.90;;;;;;5075891;28;20541;-91
2021/06/04 02:18:01;;;;;;;3.63;2.55;;;16.60;99.90;;;;;;5075674;28;20078;-91
2021/06/04 02:20:41;;;;;;;4.72;2.60;;;16.50;99.90;;;;;;5075718;28;20040;-91
2021/06/04 02:23:16;;;;;;;6.28;2.53;;;16.30;99.90;;;;;;5076707;28;20024;-90
2021/06/04 02:26:11;;;;;;;4.10;2.30;;;16.40;99.90;;;;;;5076437;28;20025;-90
2021/06/04 02:29:08;;;;;;;3.38;2.33;;;16.40;99.90;;;;;;5075445;28;20024;-90
2021/06/04 02:31:43;;;;;;;4.78;2.78;;;16.50;99.90;;;;;;5073301;28;20028;-91
2021/06/04 02:34:21;;;;;;;2.60;2.40;;;16.40;99.90;;;;;;5076459;28;20377;-91
2021/06/04 02:36:55;;;;;;;5.85;2.50;;;16.30;99.90;;;;;;5075351;28;20025;-91
2021/06/04 02:39:40;;;;;;;6.60;2.78;;;16.40;99.90;;;;;;5075335;28;20545;-90
2021/06/04 02:42:11;;;;;;;;;;;16.30;99.90;;;;;;5075708;28;20021;-91
2021/06/04 02:44:47;;;;;;;7.10;2.50;;;16.40;99.90;;;;;;5075007;28;19905;-91
2021/06/04 02:47:25;;;;;;;3.05;2.70;;;16.50;99.90;;;;;;5075134;28;20021;-91
2021/06/04 02:49:53;;;;;;;4.85;2.47;;;16.40;99.90;;;;;;5076489;28;20051;-91
2021/06/04 02:52:41;;;;;;;4.70;2.90;;;16.50;99.90;;;;;;5074822;28;20025;-91
2021/06/04 02:55:19;;;;;;;6.28;3.35;;;16.40;99.90;;;;;;5075399;28;20017;-90
2021/06/04 02:57:44;;;;;;;5.57;2.45;;;16.40;99.90;;;;;;5075142;28;20060;-91
2021/06/04 03:00:38;;;;;;;6.40;2.85;;;16.50;99.90;;;;;;5076018;28;20024;-91
2021/06/04 03:03:06;;;;;;;4.85;3.13;;;16.40;99.90;;;;;;5074768;28;20112;-91
2021/06/04 03:05:35;;;;;;;6.68;2.85;;;16.30;99.90;;;;;;5075945;28;20025;-91
2021/06/04 03:08:01;;;;;;;5.40;2.03;;;16.30;99.90;;;;;;5074317;28;20025;-91
2021/06/04 03:10:40;;;;;;;3.67;2.28;;;16.30;99.90;;;;;;5074382;28;20035;-91
2021/06/04 03:13:09;;;;;;;6.90;2.88;;;16.00;99.90;;;;;;5075681;28;20503;-91
2021/06/04 03:15:56;;;;;;;2.90;2.50;;;16.00;99.90;;;;;;5074434;28;20017;-91
2021/06/04 03:18:30;;;;;;;7.15;2.75;;;16.00;99.90;;;;;;5074329;28;20109;-91
2021/06/04 03:20:57;;;;;;;4.32;2.47;;;16.10;99.90;;;;;;5074439;28;20583;-90
2021/06/04 03:23:35;;;;;;;6.15;3.20;;;16.10;99.90;;;;;;5074392;28;20056;-91
2021/06/04 03:26:01;;;;;;;4.32;2.40;;;16.30;99.90;;;;;;5074306;28;20020;-91
2021/06/04 03:28:27;;;;;;;8.73;2.53;;;16.30;99.90;;;;;;5073988;28;20024;-91
2021/06/04 03:30:53;;;;;;;3.05;2.80;;;16.30;99.90;;;;;;5074409;28;20020;-91
2021/06/04 03:33:24;;;;;;;4.53;2.40;;;16.40;99.90;;;;;;5074039;28;20480;-91
2021/06/04 03:35:50;;;;;;;4.07;2.58;;;16.30;99.90;;;;;;5074025;28;20142;-91
2021/06/04 03:38:18;;;;;;;7.00;3.05;;;16.30;99.90;;;;;;5074007;28;20483;-90
2021/06/04 03:40:45;;;;;;;3.50;2.45;;;16.40;99.90;;;;;;5075401;28;20100;-91
2021/06/04 03:43:14;;;;;;;5.65;2.75;;;16.40;99.90;;;;;;5073987;28;20048;-91
2021/06/04 03:45:42;;;;;;;7.60;2.28;;;16.40;99.90;;;;;;5073832;28;20025;-90
2021/06/04 03:48:11;;;;;;;5.88;2.85;;;16.40;99.90;;;;;;5073778;28;20025;-91
2021/06/04 03:50:37;;;;;;;4.15;2.53;;;16.50;99.90;;;;;;5074861;28;20020;-90
2021/06/04 03:53:05;;;;;;;6.45;2.50;;;16.50;99.90;;;;;;5073603;28;20543;-91
2021/06/04 03:55:31;;;;;;;5.13;2.30;;;16.60;99.90;;;;;;5073642;28;20033;-90
2021/06/04 03:57:57;;;;;;;3.78;2.65;;;16.60;99.90;;;;;;5073645;28;20028;-91
2021/06/04 04:00:51;;;;;;;3.00;2.38;;;16.50;99.90;;;;;;5073595;28;20113;-90
2021/06/04 04:03:20;;;;;;;6.30;2.75;;;16.50;99.90;;;;;;5074741;28;20071;-91
2021/06/04 04:05:47;;;;;;;4.07;2.53;;;16.60;99.90;;;;;;5073482;28;20115;-90
2021/06/04 04:08:15;;;;;;;2.85;2.55;;;16.60;99.90;;;;;;5073448;28;20021;-91
2021/06/04 04:10:42;;;;;;;3.95;2.67;;;16.50;99.90;;;;;;5073400;28;20056;-91
2021/06/04 04:13:09;;;;;;;7.30;3.22;;;16.60;99.90;;;;;;5073474;28;20028;-91
2021/06/04 04:15:35;;;;;;;8.52;3.30;;;16.70;99.90;;;;;;5074930;28;20400;-89
2021/06/04 04:18:03;;;;;;;3.50;2.97;;;16.70;99.90;;;;;;5073283;28;20081;-91
2021/06/04 04:20:49;;;;;;;3.58;3.00;;;16.70;99.90;;;;;;5073185;28;20029;-90
2021/06/04 04:23:35;;;;;;;4.35;3.45;;;16.90;99.90;;;;;;5073170;28;20480;-90
2021/06/04 04:26:01;;;;;;;6.40;4.05;;;17.00;99.90;;;;;;5073083;28;20024;-90
2021/06/04 04:28:31;;;;;;;8.77;3.60;;;17.10;99.90;;;;;;5073148;28;20030;-90
2021/06/04 04:30:58;;;;;;;5.47;3.38;;;17.20;99.90;;;;;;5074124;28;20021;-90
2021/06/04 04:33:25;;;;;;;6.22;3.30;;;17.30;99.90;;;;;;5073043;28;20395;-90
2021/06/04 04:35:51;;;;;;;3.67;2.90;;;17.40;99.90;;;;;;5072862;28;20075;-90
2021/06/04 04:38:20;;;;;;;5.65;3.08;;;17.40;99.90;;;;;;5072904;28;20020;-90
2021/06/04 04:40:50;;;;;;;3.83;2.72;;;17.40;99.90;;;;;;5073053;28;20044;-91
2021/06/04 04:43:17;;;;;;;6.30;2.80;;;17.30;99.90;;;;;;5072918;28;20484;-91
2021/06/04 04:45:42;;;;;;;5.35;3.40;;;17.30;99.90;;;;;;5073207;28;20037;-90
2021/06/04 04:48:08;;;;;;;7.25;3.30;;;17.20;99.90;;;;;;5072981;28;20035;-91
2021/06/04 04:50:36;;;;;;;3.08;2.78;;;17.20;99.90;;;;;;5072932;28;20050;-90
2021/06/04 04:53:04;;;;;;;4.25;2.97;;;17.30;99.90;;;;;;5073780;28;20107;-91
2021/06/04 04:55:31;;;;;;;4.50;3.00;;;17.30;99.90;;;;;;5074147;28;20017;-90
2021/06/04 04:57:57;;;;;;;3.40;2.88;;;17.40;99.90;;;;;;5072791;28;20066;-91
2021/06/04 05:00:27;;;;;;;4.75;2.75;;;17.50;99.90;;;;;;5072808;28;20020;-91
2021/06/04 05:02:53;;;;;;;5.85;3.35;;;17.60;99.90;;;;;;5072775;28;20025;-91
2021/06/04 05:05:21;;;;;;;6.22;3.00;;;17.60;99.90;;;;;;5072834;28;20029;-90
2021/06/04 05:07:47;;;;;;;4.55;3.20;;;17.60;99.90;;;;;;5072746;28;20038;-90
2021/06/04 05:10:13;;;;;;;4.97;2.75;;;17.70;99.90;;;;;;5074157;28;20021;-91
2021/06/04 05:12:39;;;;;;;3.40;2.67;;;17.70;99.90;;;;;;5072544;28;20029;-91
2021/06/04 05:15:07;;;;;;;3.25;2.92;;;17.80;99.90;;;;;;5072673;28;20060;-90
2021/06/04 05:17:33;;;;;;;6.38;4.00;;;17.70;99.90;;;;;;5072582;28;20021;-91
2021/06/04 05:19:59;;;;;;;4.35;3.50;;;17.80;99.90;;;;;;5072582;28;20025;-91
2021/06/04 05:22:25;;;;;;;6.05;3.38;;;17.70;99.90;;;;;;5072665;28;20051;-91
2021/06/04 05:24:51;;;;;;;7.38;3.65;;;17.80;99.90;;;;;;5072497;28;20028;-91
2021/06/04 05:27:17;;;;;;;4.40;3.50;;;17.90;99.90;;;;;;5072535;28;20373;-91
2021/06/04 05:29:43;;;;;;;6.07;3.58;;;17.90;99.90;;;;;;5072647;28;20067;-91
2021/06/04 05:32:09;;;;;;;6.18;3.30;;;18.00;99.90;;;;;;5074883;28;20476;-90
2021/06/04 05:34:36;;;;;;;4.80;3.45;;;18.10;99.90;;;;;;5076290;28;20183;-91
2021/06/04 05:37:02;;;;;;;11.32;3.20;;;18.20;99.90;;;;;;5076616;28;20106;-90
2021/06/04 05:39:28;;;;;;;4.13;3.55;;;18.30;99.90;;;;;;5076221;28;20027;-91
2021/06/04 05:41:59;;;;;;;5.32;3.10;;;18.40;99.90;;;;;;5076141;28;20024;-91
2021/06/04 05:44:27;;;;;;;4.97;3.42;;;18.30;99.90;;;;;;5076242;28;20028;-90
2021/06/04 05:46:55;;;;;;;5.47;3.00;;;18.40;99.90;;;;;;5076234;28;20468;-91
2021/06/04 05:49:21;;;;;;;4.82;2.90;;;18.40;99.90;;;;;;5077294;28;20031;-90
2021/06/04 05:51:48;;;;;;;6.30;2.75;;;18.40;99.90;;;;;;5076025;28;20028;-90
2021/06/04 05:54:16;;;;;;;4.60;2.83;;;18.40;99.90;;;;;;5075981;28;20024;-90
2021/06/04 05:56:43;;;;;;;7.47;2.63;;;18.40;99.90;;;;;;5075999;28;20428;-90
2021/06/04 05:59:10;;;;;;;3.75;2.60;;;18.40;99.90;;;;;;5075823;28;20025;-91
2021/06/04 06:01:37;;;;;;;6.25;3.10;;;18.50;99.90;;;;;;5075749;28;20047;-90
2021/06/04 06:04:04;;;;;;;9.57;3.20;;;18.40;99.90;;;;;;5075942;28;20024;-91
2021/06/04 06:06:30;;;;;;;4.50;2.55;;;18.50;99.90;;;;;;5075880;28;20029;-91
2021/06/04 06:08:56;;;;;;;6.03;2.90;;;18.50;99.90;;;;;;5075744;28;20047;-91
2021/06/04 06:11:25;;;;;;;5.10;3.00;;;18.40;99.90;;;;;;5075441;28;20059;-90
2021/06/04 06:13:52;;;;;;;4.07;3.03;;;18.50;99.90;;;;;;5075903;28;20448;-91
2021/06/04 06:16:19;;;;;;;6.78;3.10;;;18.50;99.90;;;;;;5076743;28;20025;-91
2021/06/04 06:18:44;;;;;;;4.00;3.10;;;18.50;99.90;;;;;;5076860;28;20114;-90
2021/06/04 06:21:11;;;;;;;3.95;2.72;;;18.50;99.90;;;;;;5075622;28;20492;-90
2021/06/04 06:23:37;;;;;;;6.60;3.00;;;18.60;99.90;;;;;;5075545;28;20021;-90
2021/06/04 06:26:07;;;;;;;4.15;3.00;;;18.60;99.90;;;;;;5075336;28;20396;-90
2021/06/04 06:28:35;;;;;;;5.00;2.78;;;18.60;99.90;;;;;;5075739;28;20032;-91
2021/06/04 06:31:03;;;;;;;7.18;3.03;;;18.70;99.90;;;;;;5075592;28;20450;-91
2021/06/04 06:33:29;;;;;;;4.18;2.65;;;18.80;99.90;;;;;;5076536;28;20024;-90
2021/06/04 06:35:59;;;;;;;5.20;2.42;;;19.00;99.90;;;;;;5075546;28;20144;-90
2021/06/04 06:38:27;;;;;;;4.05;2.42;;;19.20;99.90;;;;;;5077249;28;20040;-90
2021/06/04 06:40:55;;;;;;;6.22;2.85;;;19.20;99.90;;;;;;5075243;28;20043;-91
2021/06/04 06:43:23;;;;;;;5.30;2.95;;;19.30;99.90;;;;;;5075349;28;20067;-90
2021/06/04 06:45:49;;;;;;;6.47;3.75;;;19.40;99.90;;;;;;5075371;28;20470;-90
2021/06/04 06:48:15;;;;;;;7.63;2.85;;;19.50;99.90;;;;;;5075220;28;20025;-90
2021/06/04 06:50:41;;;;;;;5.88;2.53;;;19.70;99.90;;;;;;5075265;28;20434;-89
2021/06/04 06:53:09;;;;;;;4.10;2.13;;;19.90;99.90;;;;;;5075098;28;20506;-90
2021/06/04 06:55:38;;;;;;;4.93;2.30;;;19.90;99.90;;;;;;5074849;28;20073;-90
2021/06/04 06:58:05;;;;;;;4.35;2.30;;;20.00;99.90;;;;;;5074858;28;20499;-89
2021/06/04 07:00:38;;;;;;;5.82;2.00;;;20.10;99.90;;;;;;5074921;28;20468;-90
2021/06/04 07:03:06;;;;;;;3.47;2.20;;;20.30;99.90;;;;;;5075064;28;20075;-90
2021/06/04 07:05:33;;;;;;;5.78;2.17;;;20.40;99.90;;;;;;5074994;28;20484;-90
2021/06/04 07:07:59;;;;;;;4.15;2.10;;;20.40;99.90;;;;;;5074746;28;20429;-90
2021/06/04 07:10:28;;;;;;;4.03;2.13;;;20.80;99.90;;;;;;5074617;28;20055;-90
2021/06/04 07:12:59;;;;;;;3.10;1.75;;;21.10;99.90;;;;;;5075909;28;20036;-90
2021/06/04 07:15:26;;;;;;;4.32;1.70;;;21.10;99.90;;;;;;5074489;28;20017;-89
2021/06/04 07:17:58;;;;;;;2.55;2.00;;;21.10;99.90;;;;;;5075702;28;20518;-90
2021/06/04 07:20:24;;;;;;;6.13;1.88;;;21.30;99.90;;;;;;5075568;28;20074;-90
2021/06/04 07:22:56;;;;;;;4.40;1.63;;;21.40;99.90;;;;;;5074322;28;20035;-90
2021/06/04 07:25:31;;;;;;;4.38;1.60;;;21.50;99.90;;;;;;5074194;28;20020;-91
2021/06/04 07:27:58;;;;;;;4.20;1.70;;;21.80;99.90;;;;;;5073743;28;20025;-88
2021/06/04 07:30:31;;;;;;;5.00;2.22;;;21.90;99.90;;;;;;5074789;28;20047;-88
2021/06/04 07:33:00;;;;;;;5.75;1.90;;;22.00;99.90;;;;;;5073435;28;20028;-88
2021/06/04 07:35:27;;;;;;;2.88;2.20;;;22.30;99.90;;;;;;5074581;28;20136;-88
2021/06/04 07:37:52;;;;;;;6.30;2.15;;;22.40;99.90;;;;;;5073592;28;20078;-88
2021/06/04 07:40:22;;;;;;;5.63;1.98;;;22.50;99.90;;;;;;5073347;28;20021;-89
2021/06/04 07:42:49;;;;;;;8.70;1.98;;;22.30;99.90;;;;;;5073762;28;20063;-90
2021/06/04 07:45:16;;;;;;;3.90;1.77;;;22.40;99.90;;;;;;5074099;28;20028;-90
2021/06/04 07:47:41;;;;;;;3.25;1.88;;;22.70;99.90;;;;;;5073764;28;20032;-90
2021/06/04 07:50:10;;;;;;;7.45;1.83;;;22.90;99.90;;;;;;5074104;28;20031;-90
2021/06/04 07:52:37;;;;;;;4.75;1.80;;;23.20;99.90;;;;;;5075628;28;20029;-89
2021/06/04 07:55:07;;;;;;;3.03;1.60;;;23.30;99.90;;;;;;5074220;28;20035;-89
2021/06/04 07:57:33;;;;;;;3.95;1.58;;;23.10;99.90;;;;;;5074444;28;20483;-89
2021/06/04 07:59:59;;;;;;;5.82;2.22;;;23.20;99.90;;;;;;5074113;28;20115;-88
2021/06/04 08:02:24;;;;;;;6.43;1.63;;;23.40;99.90;;;;;;5073953;28;20042;-88
2021/06/04 08:04:53;;;;;;;5.93;2.17;;;23.40;99.90;;;;;;5075214;28;20032;-89
2021/06/04 08:07:20;;;;;;;4.15;1.60;;;23.60;99.90;;;;;;5074046;28;20426;-89
2021/06/04 08:09:46;;;;;;;5.03;2.28;;;23.60;99.90;;;;;;5075761;28;20020;-89
2021/06/04 08:12:15;;;;;;;3.67;1.60;;;23.70;99.90;;;;;;5073992;28;20024;-89
2021/06/04 08:14:41;;;;;;;5.50;1.50;;;23.80;99.90;;;;;;5073963;28;20419;-89
2021/06/04 08:17:07;;;;;;;4.28;1.60;;;23.90;99.90;;;;;;5075200;28;20072;-89
2021/06/04 08:19:34;;;;;;;4.28;1.60;;;24.10;99.90;;;;;;5074609;28;20027;-89
2021/06/04 08:22:03;;;;;;;6.38;1.63;;;24.10;99.90;;;;;;5072803;28;20111;-89
2021/06/04 08:24:31;;;;;;;3.75;1.80;;;24.20;99.90;;;;;;5072927;28;20029;-89
2021/06/04 08:26:58;;;;;;;6.80;1.88;;;24.40;99.90;;;;;;5074076;28;20028;-88
2021/06/04 08:29:27;;;;;;;7.20;1.63;;;24.60;99.90;;;;;;5072567;28;20074;-90
2021/06/04 08:31:53;;;;;;;6.97;2.05;;;24.70;99.90;;;;;;5072470;28;20086;-89
2021/06/04 08:34:19;;;;;;;5.85;2.13;;;24.70;99.90;;;;;;5072436;28;20172;-89
2021/06/04 08:36:45;;;;;;;8.23;2.17;;;24.70;99.90;;;;;;5072575;28;20048;-87
2021/06/04 08:39:18;;;;;;;5.28;1.88;;;24.80;99.90;;;;;;5072557;28;20480;-89
2021/06/04 08:42:12;;;;;;;6.78;2.00;;;24.90;99.90;;;;;;5072686;28;20093;-89
2021/06/04 08:44:44;;;;;;;5.38;1.75;;;25.10;99.90;;;;;;5072874;28;20035;-89
2021/06/04 08:47:25;;;;;;;5.70;2.00;;;25.30;99.90;;;;;;5073867;28;20538;-90
2021/06/04 08:50:27;;;;;;;4.22;1.85;;;25.30;99.90;;;;;;5072444;28;20025;-89
2021/06/04 08:53:22;;;;;;;5.43;1.95;;;25.40;99.90;;;;;;5072582;28;20029;-89
2021/06/04 08:56:09;;;;;;;7.45;2.55;;;25.40;99.90;;;;;;5073828;28;20440;-89
2021/06/04 08:58:57;;;;;;;7.40;2.00;;;25.50;99.90;;;;;;5073902;28;20077;-90
2021/06/04 09:01:28;;;;;;;5.20;2.20;;;25.50;99.90;;;;;;5072600;28;20024;-90
2021/06/04 09:04:00;;;;;;;4.43;1.80;;;25.90;99.90;;;;;;5072372;28;20021;-89
2021/06/04 09:06:31;;;;;;;5.97;1.95;;;25.90;99.90;;;;;;5071691;28;20020;-89
2021/06/04 09:09:43;;;;;;;5.22;2.00;;;25.80;99.90;;;;;;5073447;28;20480;-90
2021/06/04 09:12:18;;;;;;;5.35;1.80;;;25.70;99.90;;;;;;5072098;28;20542;-89
2021/06/04 09:14:45;;;;;;;9.43;1.98;;;25.60;99.90;;;;;;5073941;28;20024;-88
2021/06/04 09:17:38;;;;;;;5.18;1.95;;;26.00;99.90;;;;;;5073291;28;20025;-89
2021/06/04 09:20:15;;;;;;;8.85;2.10;;;26.20;99.90;;;;;;5072096;28;20021;-89
2021/06/04 09:22:44;;;;;;;4.97;1.73;;;26.20;99.90;;;;;;5073279;28;20020;-89
2021/06/04 09:25:14;;;;;;;4.47;1.65;;;26.10;99.90;;;;;;5072089;28;20064;-89
2021/06/04 09:27:42;;;;;;;4.53;1.80;;;26.00;99.90;;;;;;5072369;28;20035;-88
2021/06/04 09:30:15;;;;;;;4.93;1.48;;;26.50;99.90;;;;;;5071933;28;20029;-89
2021/06/04 09:32:59;;;;;;;4.00;1.90;;;26.80;99.90;;;;;;5071969;28;20480;-88
2021/06/04 09:35:25;;;;;;;6.53;1.60;;;26.90;99.90;;;;;;5071757;28;20102;-89
2021/06/04 09:37:52;;;;;;;5.13;1.65;;;27.30;99.90;;;;;;5071881;28;20033;-89
2021/06/04 09:40:20;;;;;;;8.77;2.00;;;27.40;99.90;;;;;;5072267;28;20089;-89
2021/06/04 09:42:55;;;;;;;6.93;1.88;;;27.40;99.90;;;;;;5073003;28;20029;-88
2021/06/04 09:45:34;;;;;;;4.82;1.60;;;26.90;99.90;;;;;;5071731;28;20028;-88
2021/06/04 09:48:09;;;;;;;3.63;1.65;;;27.00;99.90;;;;;;5071850;28;20021;-90
2021/06/04 09:50:47;;;;;;;6.38;1.55;;;27.30;99.90;;;;;;5073127;28;20380;-88
2021/06/04 09:53:22;;;;;;;7.25;1.73;;;27.40;99.90;;;;;;5071798;28;20025;-87
2021/06/04 09:56:05;;;;;;;6.85;2.00;;;27.60;99.90;;;;;;5073039;28;20056;-88
2021/06/04 09:58:32;;;;;;;9.50;1.83;;;27.70;99.90;;;;;;5072904;28;20108;-88
2021/06/04 10:01:04;;;;;;;6.22;1.63;;;27.50;99.90;;;;;;5071560;28;20295;-89
2021/06/04 10:03:50;;;;;;;6.88;1.70;;;27.40;99.90;;;;;;5071766;28;20027;-89
2021/06/04 10:06:19;;;;;;;4.15;1.40;;;27.50;99.90;;;;;;5072611;28;20040;-89
2021/06/04 10:08:53;;;;;;;6.07;1.60;;;27.70;99.90;;;;;;5072798;28;20032;-89
2021/06/04 10:11:31;;;;;;;3.47;1.70;;;27.90;99.90;;;;;;5073190;28;20053;-90
2021/06/04 10:14:25;;;;;;;4.63;1.52;;;27.80;99.60;;;;;;5071902;28;20036;-89
2021/06/04 10:17:14;;;;;;;6.22;2.35;;;27.70;99.40;;;;;;5071578;28;20104;-87
2021/06/04 10:19:47;;;;;;;7.32;1.40;;;27.50;99.70;;;;;;5074802;28;20116;-88
2021/06/04 10:22:38;;;;;;;4.45;1.48;;;27.60;99.70;;;;;;5075282;28;20078;-89
2021/06/04 10:25:06;;;;;;;7.65;1.73;;;27.50;99.50;;;;;;5074861;28;20124;-89
2021/06/04 10:27:37;;;;;;;3.05;1.30;;;27.60;98.40;;;;;;5074896;28;20111;-88
2021/06/04 10:30:21;;;;;;;3.45;1.02;;;27.80;97.80;;;;;;5075410;28;20027;-87
2021/06/04 10:32:56;;;;;;;6.25;2.00;;;27.20;97.10;;;;;;5074708;28;20031;-89
2021/06/04 10:35:35;;;;;;;3.78;1.33;;;27.00;98.40;;;;;;5074812;28;20504;-87
2021/06/04 10:38:07;;;;;;;5.95;1.40;;;27.10;98.30;;;;;;5074592;28;20027;-88
2021/06/04 10:40:49;;;;;;;9.25;1.60;;;27.40;99.30;;;;;;5075828;28;20017;-86
2021/06/04 10:43:36;;;;;;;5.72;1.60;;;27.20;97.40;;;;;;5074493;28;20067;-88
2021/06/04 10:46:18;;;;;;;3.72;1.50;;;27.30;97.90;;;;;;5074433;28;20095;-89
2021/06/04 10:49:05;;;;;;;6.45;1.65;;;27.70;98.20;;;;;;5075686;28;20429;-88
2021/06/04 10:51:56;;;;;;;5.55;1.67;;;28.00;96.80;;;;;;5075468;28;20024;-88
2021/06/04 10:54:21;;;;;;;3.15;1.33;;;28.30;96.50;;;;;;5074392;28;20032;-90
2021/06/04 10:57:02;;;;;;;6.80;1.70;;;28.40;95.50;;;;;;5074342;28;20427;-89
2021/06/04 10:59:55;;;;;;;3.63;1.60;;;28.80;95.10;;;;;;5074385;28;20027;-90
2021/06/04 11:02:32;;;;;;;4.45;1.55;;;29.60;94.50;;;;;;5074435;28;20484;-88
2021/06/04 11:05:14;;;;;;;5.43;1.42;;;29.40;93.90;;;;;;5074496;28;20408;-88
2021/06/04 11:08:28;;;;;;;4.78;1.63;;;28.70;94.70;;;;;;5075673;28;20028;-88
2021/06/04 11:10:59;;;;;;;6.90;1.77;;;28.20;95.30;;;;;;5056902;28;20127;-89
2021/06/04 11:14:03;;;;;;;4.05;1.50;;;27.90;95.60;;;;;;5074179;28;20024;-89
2021/06/04 11:16:28;;;;;;;3.95;1.40;;;28.40;95.70;;;;;;5073992;28;20078;-90
2021/06/04 11:19:02;;;;;;;4.18;1.60;;;29.20;95.20;;;;;;5074490;28;20020;-89
2021/06/04 11:21:36;;;;;;;6.72;1.80;;;29.60;94.20;;;;;;5074529;28;20512;-89
2021/06/04 11:24:13;;;;;;;4.80;1.63;;;29.80;94.40;;;;;;5075040;28;20503;-89
2021/06/04 11:26:40;;;;;;;9.10;1.60;;;29.20;94.30;;;;;;5075218;28;20047;-88
2021/06/04 11:29:15;;;;;;;8.00;1.67;;;28.20;95.30;;;;;;5073337;28;20548;-87
2021/06/04 11:31:54;;;;;;;5.78;1.80;;;27.50;95.40;;;;;;5074856;28;20028;-89
2021/06/04 11:34:38;;;;;;;5.90;1.25;;;27.40;95.30;;;;;;5074493;28;20040;-89
2021/06/04 11:37:10;;;;;;;5.88;1.70;;;28.20;94.90;;;;;;5074817;28;20031;-88
2021/06/04 11:39:38;;;;;;;5.32;1.73;;;28.70;94.00;;;;;;5074657;28;20077;-87
2021/06/04 11:42:14;;;;;;;7.72;1.75;;;28.30;93.60;;;;;;5073597;28;20106;-88
2021/06/04 11:44:43;;;;;;;4.05;1.70;;;28.00;94.20;;;;;;5074580;28;20105;-86
2021/06/04 11:47:12;;;;;;;9.88;2.15;;;27.80;94.50;;;;;;5056433;28;20136;-87
2021/06/04 11:49:53;;;;;;;6.70;1.65;;;27.70;94.80;;;;;;5073238;28;20050;-87
2021/06/04 11:52:33;;;;;;;5.85;1.52;;;27.70;94.50;;;;;;5074294;28;20059;-88
2021/06/04 11:55:30;;;;;;;7.35;1.42;;;27.70;94.90;;;;;;5073054;28;20438;-87
2021/06/04 11:58:21;;;;;;;4.78;1.60;;;27.70;95.10;;;;;;5071381;28;20033;-88
2021/06/04 12:00:52;;;;;;;4.00;1.70;;;28.00;96.00;;;;;;5071103;28;20547;-89
2021/06/04 12:03:24;;;;;;;4.03;1.80;;;28.70;94.30;;;;;;5074555;28;20384;-88
2021/06/04 12:05:55;;;;;;;6.88;1.90;;;29.20;96.20;;;;;;5072994;28;20055;-88
2021/06/04 12:08:21;;;;;;;6.57;1.98;;;28.60;96.20;;;;;;5072958;28;20036;-89
2021/06/04 12:10:47;;;;;;;6.13;2.10;;;28.50;97.40;;;;;;5072928;28;20028;-88
2021/06/04 12:13:43;;;;;;;9.45;2.10;;;28.50;98.40;;;;;;5073967;28;20077;-89
2021/06/04 12:16:21;;;;;;;5.60;1.73;;;28.60;97.90;;;;;;5072833;28;20020;-88
2021/06/04 12:19:16;;;;;;;7.57;1.75;;;29.00;97.20;;;;;;5072824;28;20028;-89
2021/06/04 12:21:44;;;;;;;4.32;1.67;;;29.40;95.90;;;;;;5072698;28;20495;-88
2021/06/04 12:24:21;;;;;;;7.05;2.17;;;29.80;95.30;;;;;;5074106;28;20051;-89
2021/06/04 12:27:11;;;;;;;5.05;1.88;;;30.30;94.30;;;;;;5072750;28;20028;-89
2021/06/04 12:29:45;;;;;;;8.77;1.75;;;31.00;93.30;;;;;;5072687;28;20025;-88
2021/06/04 12:32:16;;;;;;;6.25;1.60;;;31.50;91.60;;;;;;5072553;28;20082;-88
2021/06/04 12:34:42;;;;;;;4.00;1.75;;;31.50;90.50;;;;;;5072451;28;20463;-89
2021/06/04 12:37:10;;;;;;;8.98;2.13;;;31.40;90.60;;;;;;5073431;28;20024;-89
2021/06/04 12:39:58;;;;;;;7.05;1.80;;;30.50;90.90;;;;;;5073765;28;20067;-89
2021/06/04 12:42:24;;;;;;;3.47;1.55;;;29.90;91.60;;;;;;5072798;28;20028;-90
2021/06/04 12:45:14;;;;;;;3.35;1.70;;;29.40;92.70;;;;;;5072827;28;20388;-89
2021/06/04 12:47:49;;;;;;;4.65;1.48;;;28.70;93.40;;;;;;5072374;28;20115;-90
2021/06/04 12:50:26;;;;;;;7.95;1.73;;;28.20;94.20;;;;;;5072450;28;20020;-89
2021/06/04 12:53:10;;;;;;;8.30;1.73;;;27.60;95.50;;;;;;5073816;28;20059;-89
2021/06/04 12:55:39;;;;;;;3.78;1.33;;;27.20;96.70;;;;;;5073690;28;20028;-89
2021/06/04 12:58:36;;;;;;;6.45;1.38;;;26.70;97.20;;;;;;5072232;28;20025;-89
2021/06/04 13:01:19;;;;;;;5.10;1.48;;;25.50;98.10;;;;;;5058319;28;20029;-89
2021/06/04 13:03:53;;;;;;;5.57;1.40;;;25.40;98.40;;;;;;5072201;28;20383;-88
2021/06/04 13:06:36;;;;;;;3.75;1.70;;;25.30;99.10;;;;;;5072353;28;20033;-89
2021/06/04 13:09:03;;;;;;;6.57;1.80;;;25.20;99.90;;;;;;5072990;28;20448;-88
2021/06/04 13:11:34;;;;;;;4.20;1.75;;;25.10;99.90;;;;;;5072300;28;20119;-88
2021/06/04 13:14:00;;;;;;;5.50;1.80;;;24.90;99.90;;;;;;5073656;28;20519;-87
2021/06/04 13:16:29;;;;;;;6.13;1.50;;;24.80;99.90;;;;;;5073590;28;20031;-88